sensor_id;sensor_type;location;lat;lon;timestamp;temperature;humidity
38239;DHT22;24035;48.900;9.188;2023-03-30T00:01:05;14.30;99.90
38239;DHT22;24035;48.900;9.188;2023-03-30T00:03:36;14.20;1.00
38239;DHT22;24035;48.900;9.188;2023-03-30T00:06:05;14.10;1.00
38239;DHT22;24035;48.900;9.188;2023-03-30T00:08:32;14.10;1.00
38239;DHT22;24035;48.900;9.188;2023-03-30T00:11:11;14.10;1.00
38239;DHT22;24035;48.900;9.188;2023-03-30T00:13:42;14.20;1.00
38239;DHT22;24035;48.900;9.188;2023-03-30T00:16:10;14.20;1.00
38239;DHT22;24035;48.900;9.188;2023-03-30T00:18:36;14.30;1.00
38239;DHT22;24035;48.900;9.188;2023-03-30T00:21:04;14.50;99.90
38239;DHT22;24035;48.900;9.188;2023-03-30T00:23:31;14.60;99.90
38239;DHT22;24035;48.900;9.188;2023-03-30T00:25:56;14.60;99.90
38239;DHT22;24035;48.900;9.188;2023-03-30T00:28:23;14.70;99.90
38239;DHT22;24035;48.900;9.188;2023-03-30T00:30:51;14.80;99.90
38239;DHT22;24035;48.900;9.188;2023-03-30T00:33:18;14.80;99.90
38239;DHT22;24035;48.900;9.188;2023-03-30T00:35:54;14.90;99.90
38239;DHT22;24035;48.900;9.188;2023-03-30T00:38:20;14.90;99.90
38239;DHT22;24035;48.900;9.188;2023-03-30T00:40:53;15.00;99.90
38239;DHT22;24035;48.900;9.188;2023-03-30T00:43:19;15.00;99.90
38239;DHT22;24035;48.900;9.188;2023-03-30T00:45:45;14.90;99.90
38239;DHT22;24035;48.900;9.188;2023-03-30T00:48:15;14.90;99.90
38239;DHT22;24035;48.900;9.188;2023-03-30T00:50:52;14.90;99.90
38239;DHT22;24035;48.900;9.188;2023-03-30T00:53:23;14.90;99.90
38239;DHT22;24035;48.900;9.188;2023-03-30T00:55:51;14.80;99.90
38239;DHT22;24035;48.900;9.188;2023-03-30T00:58:19;14.80;99.90
38239;DHT22;24035;48.900;9.188;2023-03-30T01:00:45;14.70;99.90
38239;DHT22;24035;48.900;9.188;2023-03-30T01:03:29;14.70;99.90
38239;DHT22;24035;48.900;9.188;2023-03-30T01:05:57;14.70;99.90
38239;DHT22;24035;48.900;9.188;2023-03-30T01:08:24;14.70;99.90
38239;DHT22;24035;48.900;9.188;2023-03-30T01:10:51;14.70;99.90
38239;DHT22;24035;48.900;9.188;2023-03-30T01:13:18;14.70;99.90
38239;DHT22;24035;48.900;9.188;2023-03-30T01:26:58;14.60;99.90
38239;DHT22;24035;48.900;9.188;2023-03-30T01:29:34;14.60;99.90
38239;DHT22;24035;48.900;9.188;2023-03-30T01:35:39;14.60;99.90
38239;DHT22;24035;48.900;9.188;2023-03-30T01:41:07;14.40;1.00
38239;DHT22;24035;48.900;9.188;2023-03-30T01:43:45;14.40;1.00
38239;DHT22;24035;48.900;9.188;2023-03-30T01:46:27;14.40;1.00
38239;DHT22;24035;48.900;9.188;2023-03-30T01:49:11;14.50;1.00
38239;DHT22;24035;48.900;9.188;2023-03-30T01:51:43;14.50;1.00
38239;DHT22;24035;48.900;9.188;2023-03-30T01:54:33;14.20;1.00
38239;DHT22;24035;48.900;9.188;2023-03-30T01:57:13;14.20;1.00
38239;DHT22;24035;48.900;9.188;2023-03-30T01:59:54;14.10;1.00
38239;DHT22;24035;48.900;9.188;2023-03-30T02:02:22;14.20;1.00
38239;DHT22;24035;48.900;9.188;2023-03-30T02:04:50;14.20;1.00
38239;DHT22;24035;48.900;9.188;2023-03-30T02:07:21;14.30;1.00
38239;DHT22;24035;48.900;9.188;2023-03-30T02:09:49;14.30;1.00
38239;DHT22;24035;48.900;9.188;2023-03-30T02:12:17;14.30;1.00
38239;DHT22;24035;48.900;9.188;2023-03-30T02:14:45;14.30;1.00
38239;DHT22;24035;48.900;9.188;2023-03-30T02:17:17;14.30;1.00
38239;DHT22;24035;48.900;9.188;2023-03-30T02:19:45;14.30;1.00
38239;DHT22;24035;48.900;9.188;2023-03-30T02:22:12;14.40;1.00
38239;DHT22;24035;48.900;9.188;2023-03-30T02:24:40;14.40;1.00
38239;DHT22;24035;48.900;9.188;2023-03-30T02:27:08;14.50;1.00
38239;DHT22;24035;48.900;9.188;2023-03-30T02:29:36;14.60;1.00
38239;DHT22;24035;48.900;9.188;2023-03-30T02:32:04;14.60;1.00
38239;DHT22;24035;48.900;9.188;2023-03-30T02:43:12;14.70;1.00
38239;DHT22;24035;48.900;9.188;2023-03-30T02:48:53;14.50;1.00
38239;DHT22;24035;48.900;9.188;2023-03-30T02:51:48;14.50;1.00
38239;DHT22;24035;48.900;9.188;2023-03-30T03:00:00;14.30;1.00
38239;DHT22;24035;48.900;9.188;2023-03-30T03:02:38;14.10;91.70
38239;DHT22;24035;48.900;9.188;2023-03-30T03:05:07;13.90;99.90
38239;DHT22;24035;48.900;9.188;2023-03-30T03:07:33;13.70;1.00
38239;DHT22;24035;48.900;9.188;2023-03-30T03:09:59;13.50;1.00
38239;DHT22;24035;48.900;9.188;2023-03-30T03:12:26;13.30;99.90
38239;DHT22;24035;48.900;9.188;2023-03-30T03:14:53;13.20;1.00
38239;DHT22;24035;48.900;9.188;2023-03-30T03:17:19;13.10;1.00
38239;DHT22;24035;48.900;9.188;2023-03-30T03:19:47;13.10;99.90
38239;DHT22;24035;48.900;9.188;2023-03-30T03:22:14;13.10;99.90
38239;DHT22;24035;48.900;9.188;2023-03-30T03:24:40;13.10;1.00
38239;DHT22;24035;48.900;9.188;2023-03-30T03:27:06;13.00;99.90
38239;DHT22;24035;48.900;9.188;2023-03-30T03:29:33;13.00;99.90
38239;DHT22;24035;48.900;9.188;2023-03-30T03:31:59;13.00;99.90
38239;DHT22;24035;48.900;9.188;2023-03-30T03:34:25;13.00;99.90
38239;DHT22;24035;48.900;9.188;2023-03-30T03:36:56;12.90;1.00
38239;DHT22;24035;48.900;9.188;2023-03-30T03:39:22;13.00;1.00
38239;DHT22;24035;48.900;9.188;2023-03-30T03:41:47;13.00;1.00
38239;DHT22;24035;48.900;9.188;2023-03-30T03:44:13;13.00;1.00
38239;DHT22;24035;48.900;9.188;2023-03-30T03:46:39;12.90;34.10
38239;DHT22;24035;48.900;9.188;2023-03-30T03:49:05;13.00;96.10
38239;DHT22;24035;48.900;9.188;2023-03-30T03:51:30;13.00;99.90
38239;DHT22;24035;48.900;9.188;2023-03-30T03:53:57;12.90;99.90
38239;DHT22;24035;48.900;9.188;2023-03-30T03:56:23;12.90;1.00
38239;DHT22;24035;48.900;9.188;2023-03-30T03:58:49;12.90;1.00
38239;DHT22;24035;48.900;9.188;2023-03-30T04:01:15;12.80;99.90
38239;DHT22;24035;48.900;9.188;2023-03-30T04:03:41;12.80;1.00
38239;DHT22;24035;48.900;9.188;2023-03-30T04:06:07;12.80;1.00
38239;DHT22;24035;48.900;9.188;2023-03-30T04:08:33;12.80;1.00
38239;DHT22;24035;48.900;9.188;2023-03-30T04:11:07;12.80;1.00
38239;DHT22;24035;48.900;9.188;2023-03-30T04:13:34;12.70;1.00
38239;DHT22;24035;48.900;9.188;2023-03-30T04:16:00;12.70;1.00
38239;DHT22;24035;48.900;9.188;2023-03-30T04:18:26;12.60;1.00
38239;DHT22;24035;48.900;9.188;2023-03-30T04:20:59;12.60;1.00
38239;DHT22;24035;48.900;9.188;2023-03-30T04:23:30;12.60;39.60
38239;DHT22;24035;48.900;9.188;2023-03-30T04:26:05;12.60;1.00
38239;DHT22;24035;48.900;9.188;2023-03-30T04:28:32;12.70;1.00
38239;DHT22;24035;48.900;9.188;2023-03-30T04:31:04;12.70;1.00
38239;DHT22;24035;48.900;9.188;2023-03-30T04:33:31;12.70;1.00
38239;DHT22;24035;48.900;9.188;2023-03-30T04:36:03;12.70;1.00
38239;DHT22;24035;48.900;9.188;2023-03-30T04:38:29;12.70;1.00
38239;DHT22;24035;48.900;9.188;2023-03-30T04:40:55;12.70;1.00
38239;DHT22;24035;48.900;9.188;2023-03-30T04:43:22;12.80;1.00
38239;DHT22;24035;48.900;9.188;2023-03-30T04:45:49;12.80;1.00
38239;DHT22;24035;48.900;9.188;2023-03-30T04:48:16;12.80;99.90
38239;DHT22;24035;48.900;9.188;2023-03-30T04:50:44;12.90;99.90
38239;DHT22;24035;48.900;9.188;2023-03-30T04:53:11;12.80;99.90
38239;DHT22;24035;48.900;9.188;2023-03-30T04:55:36;12.80;99.90
38239;DHT22;24035;48.900;9.188;2023-03-30T04:58:02;12.90;99.90
38239;DHT22;24035;48.900;9.188;2023-03-30T05:00:28;12.80;99.90
38239;DHT22;24035;48.900;9.188;2023-03-30T05:03:00;12.80;99.90
38239;DHT22;24035;48.900;9.188;2023-03-30T05:05:26;12.80;1.00
38239;DHT22;24035;48.900;9.188;2023-03-30T05:07:52;12.90;99.90
38239;DHT22;24035;48.900;9.188;2023-03-30T05:10:18;12.90;94.50
38239;DHT22;24035;48.900;9.188;2023-03-30T05:12:44;12.90;40.60
38239;DHT22;24035;48.900;9.188;2023-03-30T05:15:10;12.90;99.90
38239;DHT22;24035;48.900;9.188;2023-03-30T05:17:36;12.90;70.10
38239;DHT22;24035;48.900;9.188;2023-03-30T05:20:04;13.00;1.00
38239;DHT22;24035;48.900;9.188;2023-03-30T05:22:33;12.90;97.80
38239;DHT22;24035;48.900;9.188;2023-03-30T05:24:59;13.00;1.00
38239;DHT22;24035;48.900;9.188;2023-03-30T05:27:25;12.90;28.10
38239;DHT22;24035;48.900;9.188;2023-03-30T05:29:51;12.90;99.90
38239;DHT22;24035;48.900;9.188;2023-03-30T05:32:17;12.80;99.90
38239;DHT22;24035;48.900;9.188;2023-03-30T05:34:43;12.90;99.90
38239;DHT22;24035;48.900;9.188;2023-03-30T05:37:08;13.00;1.00
38239;DHT22;24035;48.900;9.188;2023-03-30T05:39:34;13.10;1.00
38239;DHT22;24035;48.900;9.188;2023-03-30T05:42:00;13.10;1.00
38239;DHT22;24035;48.900;9.188;2023-03-30T05:44:26;13.10;1.00
38239;DHT22;24035;48.900;9.188;2023-03-30T05:46:52;13.20;1.00
38239;DHT22;24035;48.900;9.188;2023-03-30T05:49:18;13.20;1.00
38239;DHT22;24035;48.900;9.188;2023-03-30T05:51:43;13.20;1.00
38239;DHT22;24035;48.900;9.188;2023-03-30T05:54:10;13.20;1.00
38239;DHT22;24035;48.900;9.188;2023-03-30T05:56:37;13.20;1.00
38239;DHT22;24035;48.900;9.188;2023-03-30T05:59:03;13.30;1.00
38239;DHT22;24035;48.900;9.188;2023-03-30T06:01:29;13.20;1.00
38239;DHT22;24035;48.900;9.188;2023-03-30T06:03:55;13.30;99.90
38239;DHT22;24035;48.900;9.188;2023-03-30T06:06:21;13.20;1.00
38239;DHT22;24035;48.900;9.188;2023-03-30T06:08:47;13.00;1.00
38239;DHT22;24035;48.900;9.188;2023-03-30T06:11:14;12.90;99.90
38239;DHT22;24035;48.900;9.188;2023-03-30T06:13:40;12.90;99.90
38239;DHT22;24035;48.900;9.188;2023-03-30T06:16:06;12.90;1.00
38239;DHT22;24035;48.900;9.188;2023-03-30T06:18:32;12.90;99.90
38239;DHT22;24035;48.900;9.188;2023-03-30T06:20:58;12.90;99.90
38239;DHT22;24035;48.900;9.188;2023-03-30T06:23:27;12.80;1.00
38239;DHT22;24035;48.900;9.188;2023-03-30T06:25:53;12.80;81.40
38239;DHT22;24035;48.900;9.188;2023-03-30T06:28:20;12.80;99.90
38239;DHT22;24035;48.900;9.188;2023-03-30T06:30:47;12.80;99.90
38239;DHT22;24035;48.900;9.188;2023-03-30T06:33:17;12.80;1.00
38239;DHT22;24035;48.900;9.188;2023-03-30T06:35:50;12.80;1.00
38239;DHT22;24035;48.900;9.188;2023-03-30T06:38:18;12.90;99.90
38239;DHT22;24035;48.900;9.188;2023-03-30T06:40:44;12.90;99.90
38239;DHT22;24035;48.900;9.188;2023-03-30T06:43:15;13.00;1.00
38239;DHT22;24035;48.900;9.188;2023-03-30T06:45:42;13.10;99.90
38239;DHT22;24035;48.900;9.188;2023-03-30T06:48:08;13.20;1.00
38239;DHT22;24035;48.900;9.188;2023-03-30T06:50:34;13.30;1.00
38239;DHT22;24035;48.900;9.188;2023-03-30T06:53:01;13.40;1.00
38239;DHT22;24035;48.900;9.188;2023-03-30T06:55:26;13.50;1.00
38239;DHT22;24035;48.900;9.188;2023-03-30T06:57:52;13.50;1.00
38239;DHT22;24035;48.900;9.188;2023-03-30T07:00:18;13.50;1.00
38239;DHT22;24035;48.900;9.188;2023-03-30T07:02:44;13.50;99.90
38239;DHT22;24035;48.900;9.188;2023-03-30T07:05:10;13.40;1.00
38239;DHT22;24035;48.900;9.188;2023-03-30T07:07:37;13.30;1.00
38239;DHT22;24035;48.900;9.188;2023-03-30T07:10:03;13.20;99.90
38239;DHT22;24035;48.900;9.188;2023-03-30T07:12:35;13.10;99.90
38239;DHT22;24035;48.900;9.188;2023-03-30T07:15:03;13.00;1.00
38239;DHT22;24035;48.900;9.188;2023-03-30T07:17:29;12.90;99.90
38239;DHT22;24035;48.900;9.188;2023-03-30T07:19:55;12.80;99.90
38239;DHT22;24035;48.900;9.188;2023-03-30T07:22:20;12.70;1.00
38239;DHT22;24035;48.900;9.188;2023-03-30T07:24:46;12.60;43.90
38239;DHT22;24035;48.900;9.188;2023-03-30T07:27:12;12.50;99.90
38239;DHT22;24035;48.900;9.188;2023-03-30T07:29:38;12.40;1.00
38239;DHT22;24035;48.900;9.188;2023-03-30T07:32:03;12.40;99.90
38239;DHT22;24035;48.900;9.188;2023-03-30T07:34:29;12.30;99.90
38239;DHT22;24035;48.900;9.188;2023-03-30T07:36:55;12.30;1.00
38239;DHT22;24035;48.900;9.188;2023-03-30T07:39:21;12.30;1.00
38239;DHT22;24035;48.900;9.188;2023-03-30T07:41:47;12.30;1.00
38239;DHT22;24035;48.900;9.188;2023-03-30T07:44:12;12.20;88.80
38239;DHT22;24035;48.900;9.188;2023-03-30T07:46:38;12.20;99.90
38239;DHT22;24035;48.900;9.188;2023-03-30T07:49:04;12.20;1.00
38239;DHT22;24035;48.900;9.188;2023-03-30T07:51:30;12.20;1.00
38239;DHT22;24035;48.900;9.188;2023-03-30T07:53:56;12.30;1.00
38239;DHT22;24035;48.900;9.188;2023-03-30T07:56:21;12.40;1.00
38239;DHT22;24035;48.900;9.188;2023-03-30T07:58:47;12.40;1.00
38239;DHT22;24035;48.900;9.188;2023-03-30T08:01:13;12.40;99.90
38239;DHT22;24035;48.900;9.188;2023-03-30T08:03:38;12.30;1.00
38239;DHT22;24035;48.900;9.188;2023-03-30T08:06:04;12.30;1.00
38239;DHT22;24035;48.900;9.188;2023-03-30T08:08:32;12.30;1.00
38239;DHT22;24035;48.900;9.188;2023-03-30T08:10:58;12.30;1.00
38239;DHT22;24035;48.900;9.188;2023-03-30T08:13:24;12.30;1.00
38239;DHT22;24035;48.900;9.188;2023-03-30T08:15:50;12.20;1.00
38239;DHT22;24035;48.900;9.188;2023-03-30T08:18:17;12.20;1.00
38239;DHT22;24035;48.900;9.188;2023-03-30T08:20:44;12.20;15.30
38239;DHT22;24035;48.900;9.188;2023-03-30T08:23:10;12.20;87.70
38239;DHT22;24035;48.900;9.188;2023-03-30T08:25:37;12.30;99.90
38239;DHT22;24035;48.900;9.188;2023-03-30T08:28:03;12.40;1.00
38239;DHT22;24035;48.900;9.188;2023-03-30T08:30:30;12.50;99.90
38239;DHT22;24035;48.900;9.188;2023-03-30T08:32:56;12.50;1.00
38239;DHT22;24035;48.900;9.188;2023-03-30T08:35:22;12.40;1.00
38239;DHT22;24035;48.900;9.188;2023-03-30T08:37:49;12.30;99.90
38239;DHT22;24035;48.900;9.188;2023-03-30T08:40:15;12.20;99.90
38239;DHT22;24035;48.900;9.188;2023-03-30T08:45:20;12.20;99.90
38239;DHT22;24035;48.900;9.188;2023-03-30T08:47:49;12.30;1.00
38239;DHT22;24035;48.900;9.188;2023-03-30T08:50:21;12.40;99.90
38239;DHT22;24035;48.900;9.188;2023-03-30T08:52:51;12.30;84.40
38239;DHT22;24035;48.900;9.188;2023-03-30T08:55:31;12.30;99.90
38239;DHT22;24035;48.900;9.188;2023-03-30T09:01:00;12.40;99.90
38239;DHT22;24035;48.900;9.188;2023-03-30T09:03:39;12.40;99.90
38239;DHT22;24035;48.900;9.188;2023-03-30T09:06:15;12.30;99.90
38239;DHT22;24035;48.900;9.188;2023-03-30T09:08:45;12.30;99.90
38239;DHT22;24035;48.900;9.188;2023-03-30T09:11:14;12.30;1.00
38239;DHT22;24035;48.900;9.188;2023-03-30T09:13:44;12.50;1.00
38239;DHT22;24035;48.900;9.188;2023-03-30T09:16:34;12.50;99.90
38239;DHT22;24035;48.900;9.188;2023-03-30T09:19:04;12.50;1.00
38239;DHT22;24035;48.900;9.188;2023-03-30T09:21:32;12.60;1.00
38239;DHT22;24035;48.900;9.188;2023-03-30T09:24:00;12.70;1.00
38239;DHT22;24035;48.900;9.188;2023-03-30T09:26:34;12.80;1.00
38239;DHT22;24035;48.900;9.188;2023-03-30T09:29:16;13.00;1.00
38239;DHT22;24035;48.900;9.188;2023-03-30T09:32:13;13.20;1.00
38239;DHT22;24035;48.900;9.188;2023-03-30T09:34:45;13.30;99.90
38239;DHT22;24035;48.900;9.188;2023-03-30T09:37:14;13.30;1.00
38239;DHT22;24035;48.900;9.188;2023-03-30T09:39:44;13.30;1.00
38239;DHT22;24035;48.900;9.188;2023-03-30T09:47:42;14.00;1.00
38239;DHT22;24035;48.900;9.188;2023-03-30T09:50:30;14.00;99.90
38239;DHT22;24035;48.900;9.188;2023-03-30T09:52:59;14.00;34.70
38239;DHT22;24035;48.900;9.188;2023-03-30T10:00:37;14.20;1.00
38239;DHT22;24035;48.900;9.188;2023-03-30T10:03:05;14.30;99.90
38239;DHT22;24035;48.900;9.188;2023-03-30T10:05:34;14.10;99.90
38239;DHT22;24035;48.900;9.188;2023-03-30T10:08:19;13.90;99.90
38239;DHT22;24035;48.900;9.188;2023-03-30T10:10:53;13.80;99.90
38239;DHT22;24035;48.900;9.188;2023-03-30T10:13:19;13.70;1.00
38239;DHT22;24035;48.900;9.188;2023-03-30T10:15:51;13.70;1.00
38239;DHT22;24035;48.900;9.188;2023-03-30T10:18:25;13.70;19.90
38239;DHT22;24035;48.900;9.188;2023-03-30T10:21:01;13.60;1.00
38239;DHT22;24035;48.900;9.188;2023-03-30T10:23:37;13.60;99.90
38239;DHT22;24035;48.900;9.188;2023-03-30T10:26:15;13.40;32.60
38239;DHT22;24035;48.900;9.188;2023-03-30T10:29:02;13.20;99.90
38239;DHT22;24035;48.900;9.188;2023-03-30T10:31:36;13.10;1.00
38239;DHT22;24035;48.900;9.188;2023-03-30T10:34:05;13.10;62.70
38239;DHT22;24035;48.900;9.188;2023-03-30T10:36:39;13.10;1.00
38239;DHT22;24035;48.900;9.188;2023-03-30T10:39:12;13.20;99.90
38239;DHT22;24035;48.900;9.188;2023-03-30T10:41:39;13.30;99.90
38239;DHT22;24035;48.900;9.188;2023-03-30T10:44:23;13.40;99.90
38239;DHT22;24035;48.900;9.188;2023-03-30T10:46:52;13.80;99.90
38239;DHT22;24035;48.900;9.188;2023-03-30T10:52:25;14.20;1.00
38239;DHT22;24035;48.900;9.188;2023-03-30T10:55:07;14.30;1.00
38239;DHT22;24035;48.900;9.188;2023-03-30T10:58:02;14.40;1.00
38239;DHT22;24035;48.900;9.188;2023-03-30T11:03:36;14.80;99.90
38239;DHT22;24035;48.900;9.188;2023-03-30T11:06:12;15.10;1.00
38239;DHT22;24035;48.900;9.188;2023-03-30T11:08:43;15.30;1.00
38239;DHT22;24035;48.900;9.188;2023-03-30T11:11:26;15.50;99.90
38239;DHT22;24035;48.900;9.188;2023-03-30T11:13:58;15.80;99.90
38239;DHT22;24035;48.900;9.188;2023-03-30T11:16:46;16.10;99.90
38239;DHT22;24035;48.900;9.188;2023-03-30T11:19:30;16.50;1.00
38239;DHT22;24035;48.900;9.188;2023-03-30T11:24:53;16.40;1.00
38239;DHT22;24035;48.900;9.188;2023-03-30T11:27:35;16.50;1.00
38239;DHT22;24035;48.900;9.188;2023-03-30T11:33:07;16.50;1.00
38239;DHT22;24035;48.900;9.188;2023-03-30T11:35:46;16.50;99.90
38239;DHT22;24035;48.900;9.188;2023-03-30T11:38:25;16.60;99.90
38239;DHT22;24035;48.900;9.188;2023-03-30T11:40:57;16.50;99.90
38239;DHT22;24035;48.900;9.188;2023-03-30T11:43:29;16.70;99.90
38239;DHT22;24035;48.900;9.188;2023-03-30T12:08:32;17.40;1.00
38239;DHT22;24035;48.900;9.188;2023-03-30T12:11:32;17.30;1.00
38239;DHT22;24035;48.900;9.188;2023-03-30T12:14:00;17.30;1.00
38239;DHT22;24035;48.900;9.188;2023-03-30T12:16:39;17.10;1.00
38239;DHT22;24035;48.900;9.188;2023-03-30T12:19:11;17.10;17.20
38239;DHT22;24035;48.900;9.188;2023-03-30T12:21:54;17.10;1.00
38239;DHT22;24035;48.900;9.188;2023-03-30T12:26:58;17.70;1.00
38239;DHT22;24035;48.900;9.188;2023-03-30T12:29:49;17.80;1.00
38239;DHT22;24035;48.900;9.188;2023-03-30T12:32:24;18.10;1.00
38239;DHT22;24035;48.900;9.188;2023-03-30T12:34:51;18.30;1.00
38239;DHT22;24035;48.900;9.188;2023-03-30T12:37:18;18.20;1.00
38239;DHT22;24035;48.900;9.188;2023-03-30T12:40:06;18.20;1.00
38239;DHT22;24035;48.900;9.188;2023-03-30T12:42:39;18.20;1.00
38239;DHT22;24035;48.900;9.188;2023-03-30T12:50:44;18.30;1.00
38239;DHT22;24035;48.900;9.188;2023-03-30T12:56:24;17.80;1.00
38239;DHT22;24035;48.900;9.188;2023-03-30T13:01:57;17.40;1.00
38239;DHT22;24035;48.900;9.188;2023-03-30T13:04:27;17.70;1.00
38239;DHT22;24035;48.900;9.188;2023-03-30T13:07:04;18.00;1.00
38239;DHT22;24035;48.900;9.188;2023-03-30T13:09:31;18.00;1.00
38239;DHT22;24035;48.900;9.188;2023-03-30T13:29:52;17.20;99.90
38239;DHT22;24035;48.900;9.188;2023-03-30T13:35:57;16.70;99.90
38239;DHT22;24035;48.900;9.188;2023-03-30T13:38:46;17.10;99.90
38239;DHT22;24035;48.900;9.188;2023-03-30T13:41:33;17.10;99.90
38239;DHT22;24035;48.900;9.188;2023-03-30T13:50:02;16.80;99.90
38239;DHT22;24035;48.900;9.188;2023-03-30T13:52:34;16.80;99.90
38239;DHT22;24035;48.900;9.188;2023-03-30T13:55:02;16.90;99.90
38239;DHT22;24035;48.900;9.188;2023-03-30T13:57:37;17.00;99.90
38239;DHT22;24035;48.900;9.188;2023-03-30T14:00:33;17.10;99.90
38239;DHT22;24035;48.900;9.188;2023-03-30T14:03:34;17.00;99.90
38239;DHT22;24035;48.900;9.188;2023-03-30T14:06:05;16.90;99.90
38239;DHT22;24035;48.900;9.188;2023-03-30T14:08:38;16.90;99.90
38239;DHT22;24035;48.900;9.188;2023-03-30T14:11:10;16.80;99.90
38239;DHT22;24035;48.900;9.188;2023-03-30T14:13:37;16.70;99.90
38239;DHT22;24035;48.900;9.188;2023-03-30T14:16:05;16.60;99.90
38239;DHT22;24035;48.900;9.188;2023-03-30T14:18:31;16.60;99.90
38239;DHT22;24035;48.900;9.188;2023-03-30T14:20:59;16.60;99.90
38239;DHT22;24035;48.900;9.188;2023-03-30T14:23:37;16.60;99.90
38239;DHT22;24035;48.900;9.188;2023-03-30T14:26:14;16.70;99.90
38239;DHT22;24035;48.900;9.188;2023-03-30T14:28:40;16.60;99.90
38239;DHT22;24035;48.900;9.188;2023-03-30T14:31:15;16.60;99.90
38239;DHT22;24035;48.900;9.188;2023-03-30T14:33:42;16.70;99.90
38239;DHT22;24035;48.900;9.188;2023-03-30T14:36:09;16.50;99.90
38239;DHT22;24035;48.900;9.188;2023-03-30T14:38:47;16.40;99.90
38239;DHT22;24035;48.900;9.188;2023-03-30T14:41:25;16.30;99.90
38239;DHT22;24035;48.900;9.188;2023-03-30T14:44:04;15.70;1.00
38239;DHT22;24035;48.900;9.188;2023-03-30T14:46:45;14.90;99.90
38239;DHT22;24035;48.900;9.188;2023-03-30T14:51:42;13.70;1.00
38239;DHT22;24035;48.900;9.188;2023-03-30T14:54:14;13.30;99.90
38239;DHT22;24035;48.900;9.188;2023-03-30T14:56:43;12.90;99.90
38239;DHT22;24035;48.900;9.188;2023-03-30T14:59:11;12.80;1.00
38239;DHT22;24035;48.900;9.188;2023-03-30T15:01:38;12.90;1.00
38239;DHT22;24035;48.900;9.188;2023-03-30T15:04:11;13.00;1.00
38239;DHT22;24035;48.900;9.188;2023-03-30T15:06:38;13.20;99.90
38239;DHT22;24035;48.900;9.188;2023-03-30T15:09:11;13.30;99.90
38239;DHT22;24035;48.900;9.188;2023-03-30T15:11:37;13.30;70.60
38239;DHT22;24035;48.900;9.188;2023-03-30T15:14:06;13.40;1.00
38239;DHT22;24035;48.900;9.188;2023-03-30T15:16:34;13.50;1.00
38239;DHT22;24035;48.900;9.188;2023-03-30T15:19:02;13.60;1.00
38239;DHT22;24035;48.900;9.188;2023-03-30T15:21:32;13.70;32.40
38239;DHT22;24035;48.900;9.188;2023-03-30T15:23:59;13.90;1.00
38239;DHT22;24035;48.900;9.188;2023-03-30T15:26:26;14.00;1.00
38239;DHT22;24035;48.900;9.188;2023-03-30T15:28:56;14.30;99.90
38239;DHT22;24035;48.900;9.188;2023-03-30T15:31:24;14.50;52.20
38239;DHT22;24035;48.900;9.188;2023-03-30T15:33:55;14.70;1.00
38239;DHT22;24035;48.900;9.188;2023-03-30T15:36:24;14.90;1.00
38239;DHT22;24035;48.900;9.188;2023-03-30T15:38:57;15.20;1.00
38239;DHT22;24035;48.900;9.188;2023-03-30T15:44:11;15.50;1.00
38239;DHT22;24035;48.900;9.188;2023-03-30T15:46:37;15.50;1.00
38239;DHT22;24035;48.900;9.188;2023-03-30T15:49:05;15.50;1.00
38239;DHT22;24035;48.900;9.188;2023-03-30T15:51:43;15.60;1.00
38239;DHT22;24035;48.900;9.188;2023-03-30T15:54:16;15.50;1.00
38239;DHT22;24035;48.900;9.188;2023-03-30T15:57:01;15.40;99.90
38239;DHT22;24035;48.900;9.188;2023-03-30T15:59:50;15.40;1.00
38239;DHT22;24035;48.900;9.188;2023-03-30T16:02:36;15.30;1.00
38239;DHT22;24035;48.900;9.188;2023-03-30T16:05:04;15.30;1.00
38239;DHT22;24035;48.900;9.188;2023-03-30T16:07:31;15.30;1.00
38239;DHT22;24035;48.900;9.188;2023-03-30T16:09:57;15.20;1.00
38239;DHT22;24035;48.900;9.188;2023-03-30T16:12:27;15.10;1.00
38239;DHT22;24035;48.900;9.188;2023-03-30T16:14:54;15.00;1.00
38239;DHT22;24035;48.900;9.188;2023-03-30T16:17:21;14.90;1.00
38239;DHT22;24035;48.900;9.188;2023-03-30T16:19:46;14.80;1.00
38239;DHT22;24035;48.900;9.188;2023-03-30T16:22:14;14.80;1.00
38239;DHT22;24035;48.900;9.188;2023-03-30T16:24:40;14.80;1.00
38239;DHT22;24035;48.900;9.188;2023-03-30T16:27:06;14.80;1.00
38239;DHT22;24035;48.900;9.188;2023-03-30T16:29:34;14.70;1.00
38239;DHT22;24035;48.900;9.188;2023-03-30T16:32:00;14.80;1.00
38239;DHT22;24035;48.900;9.188;2023-03-30T16:34:25;14.80;1.00
38239;DHT22;24035;48.900;9.188;2023-03-30T16:36:52;14.80;1.00
38239;DHT22;24035;48.900;9.188;2023-03-30T16:39:23;14.80;1.00
38239;DHT22;24035;48.900;9.188;2023-03-30T16:41:49;14.80;1.00
38239;DHT22;24035;48.900;9.188;2023-03-30T16:44:17;14.70;1.00
38239;DHT22;24035;48.900;9.188;2023-03-30T16:46:43;14.70;1.00
38239;DHT22;24035;48.900;9.188;2023-03-30T16:49:14;14.60;1.00
38239;DHT22;24035;48.900;9.188;2023-03-30T16:51:41;14.60;1.00
38239;DHT22;24035;48.900;9.188;2023-03-30T16:54:08;14.60;1.00
38239;DHT22;24035;48.900;9.188;2023-03-30T16:56:33;14.60;1.00
38239;DHT22;24035;48.900;9.188;2023-03-30T16:58:59;14.60;1.00
38239;DHT22;24035;48.900;9.188;2023-03-30T17:01:27;14.50;1.00
38239;DHT22;24035;48.900;9.188;2023-03-30T17:03:53;14.40;1.00
38239;DHT22;24035;48.900;9.188;2023-03-30T17:06:19;14.30;1.00
38239;DHT22;24035;48.900;9.188;2023-03-30T17:08:48;14.30;1.00
38239;DHT22;24035;48.900;9.188;2023-03-30T17:11:14;14.20;1.00
38239;DHT22;24035;48.900;9.188;2023-03-30T17:13:40;14.10;1.00
38239;DHT22;24035;48.900;9.188;2023-03-30T17:16:07;14.00;1.00
38239;DHT22;24035;48.900;9.188;2023-03-30T17:18:32;13.90;1.00
38239;DHT22;24035;48.900;9.188;2023-03-30T17:20:59;13.90;1.00
38239;DHT22;24035;48.900;9.188;2023-03-30T17:23:28;13.80;1.00
38239;DHT22;24035;48.900;9.188;2023-03-30T17:25:55;13.70;1.00
38239;DHT22;24035;48.900;9.188;2023-03-30T17:30:49;13.40;1.00
38239;DHT22;24035;48.900;9.188;2023-03-30T17:33:15;13.30;1.00
38239;DHT22;24035;48.900;9.188;2023-03-30T17:35:44;13.30;1.00
38239;DHT22;24035;48.900;9.188;2023-03-30T17:38:10;13.20;1.00
38239;DHT22;24035;48.900;9.188;2023-03-30T17:40:36;13.20;1.00
38239;DHT22;24035;48.900;9.188;2023-03-30T17:43:06;13.10;1.00
38239;DHT22;24035;48.900;9.188;2023-03-30T17:45:32;13.10;1.00
38239;DHT22;24035;48.900;9.188;2023-03-30T17:48:00;13.00;4.40
38239;DHT22;24035;48.900;9.188;2023-03-30T17:50:31;12.80;68.80
38239;DHT22;24035;48.900;9.188;2023-03-30T17:52:58;12.70;99.90
38239;DHT22;24035;48.900;9.188;2023-03-30T17:55:26;12.60;99.90
38239;DHT22;24035;48.900;9.188;2023-03-30T17:57:53;12.60;99.90
38239;DHT22;24035;48.900;9.188;2023-03-30T18:00:30;12.50;99.90
38239;DHT22;24035;48.900;9.188;2023-03-30T18:02:57;12.50;99.90
38239;DHT22;24035;48.900;9.188;2023-03-30T18:05:26;12.60;99.90
38239;DHT22;24035;48.900;9.188;2023-03-30T18:07:52;12.60;99.90
38239;DHT22;24035;48.900;9.188;2023-03-30T18:10:37;12.60;99.90
38239;DHT22;24035;48.900;9.188;2023-03-30T18:13:04;12.70;99.90